Time;durP1;ratioP1;P1;durP2;ratioP2;P2;SDS_P1;SDS_P2;PMS_P1;PMS_P2;Temp;Humidity;BMP_temperature;BMP_pressure;BME280_temperature;BME280_humidity;BME280_pressure;Samples;Min_cycle;Max_cycle;Signal;HPM_P1;HPM_P2
2021/06/26 00:00:53;;;;;;;18.23;9.52;;;18.00;89.40;;;;;;4994040;28;20040;-87
2021/06/26 00:03:24;;;;;;;16.90;8.77;;;18.00;89.50;;;;;;4987585;28;20019;-80
2021/06/26 00:05:50;;;;;;;15.70;8.23;;;17.90;89.60;;;;;;4987568;28;20073;-76
2021/06/26 00:08:17;;;;;;;15.82;8.35;;;17.90;89.70;;;;;;4990055;28;20114;-75
2021/06/26 00:10:44;;;;;;;14.18;8.18;;;17.90;89.80;;;;;;4987331;28;20027;-76
2021/06/26 00:13:10;;;;;;;16.83;8.38;;;17.80;89.90;;;;;;4974344;28;20038;-76
2021/06/26 00:15:36;;;;;;;17.90;8.65;;;17.90;90.00;;;;;;4991358;28;20050;-76
2021/06/26 00:18:03;;;;;;;14.38;9.00;;;17.80;90.00;;;;;;4992461;28;20061;-78
2021/06/26 00:20:28;;;;;;;17.90;8.75;;;17.80;90.00;;;;;;4990774;28;20030;-76
2021/06/26 00:22:54;;;;;;;16.63;9.65;;;17.80;90.00;;;;;;4992485;28;20026;-76
2021/06/26 00:25:22;;;;;;;16.13;8.80;;;17.80;90.00;;;;;;4974359;28;20150;-76
2021/06/26 00:27:51;;;;;;;16.27;9.20;;;17.80;90.10;;;;;;4988901;28;20041;-75
2021/06/26 00:30:18;;;;;;;18.05;8.40;;;17.70;90.00;;;;;;4980318;28;20031;-75
2021/06/26 00:32:44;;;;;;;13.90;8.30;;;17.70;90.10;;;;;;4982766;28;20574;-76
2021/06/26 00:35:11;;;;;;;17.67;9.35;;;17.70;90.10;;;;;;4979478;28;20229;-76
2021/06/26 00:37:37;;;;;;;16.35;9.20;;;17.60;90.20;;;;;;4985287;28;20487;-76
2021/06/26 00:40:04;;;;;;;14.57;7.97;;;17.60;90.20;;;;;;4990826;28;20041;-76
2021/06/26 00:42:34;;;;;;;19.15;9.15;;;17.60;90.20;;;;;;4967026;28;20030;-76
2021/06/26 00:45:00;;;;;;;17.07;8.13;;;17.60;90.30;;;;;;4991243;28;20034;-77
2021/06/26 00:47:27;;;;;;;21.17;9.45;;;17.50;90.30;;;;;;4969887;28;20451;-76
2021/06/26 00:49:53;;;;;;;16.60;9.05;;;17.50;90.30;;;;;;4989138;28;20048;-77
2021/06/26 00:52:18;;;;;;;17.92;8.93;;;17.50;90.30;;;;;;4993573;28;20069;-77
2021/06/26 00:54:45;;;;;;;17.25;8.93;;;17.40;90.30;;;;;;4972739;28;20373;-77
2021/06/26 00:57:12;;;;;;;15.30;8.40;;;17.40;90.40;;;;;;4992545;28;20313;-77
2021/06/26 00:59:38;;;;;;;18.33;8.82;;;17.40;90.40;;;;;;4988268;28;20022;-76
2021/06/26 01:02:06;;;;;;;16.50;9.05;;;17.40;90.40;;;;;;4966241;28;20397;-77
2021/06/26 01:04:32;;;;;;;19.20;9.25;;;17.30;90.40;;;;;;4962835;28;20026;-77
2021/06/26 01:06:58;;;;;;;13.57;8.18;;;17.30;90.40;;;;;;4965561;28;20053;-76
2021/06/26 01:09:25;;;;;;;20.92;9.10;;;17.30;90.40;;;;;;4983926;28;20378;-77
2021/06/26 01:11:57;;;;;;;18.17;8.98;;;17.30;90.40;;;;;;4989176;28;20101;-77
2021/06/26 01:14:29;;;;;;;17.55;9.10;;;17.30;90.40;;;;;;4985124;28;20072;-77
2021/06/26 01:16:55;;;;;;;15.18;8.20;;;17.20;90.40;;;;;;4984612;28;20030;-76
2021/06/26 01:19:22;;;;;;;19.98;9.50;;;17.20;90.40;;;;;;4962380;28;20033;-77
2021/06/26 01:21:53;;;;;;;16.23;9.40;;;17.20;90.50;;;;;;4985609;28;20095;-77
2021/06/26 01:24:19;;;;;;;16.67;8.07;;;17.20;90.50;;;;;;4988821;28;20122;-76
2021/06/26 01:26:45;;;;;;;18.08;9.07;;;17.20;90.50;;;;;;4993084;28;20054;-77
2021/06/26 01:29:11;;;;;;;18.38;9.40;;;17.20;90.60;;;;;;4971430;28;20378;-76
2021/06/26 01:31:38;;;;;;;15.65;7.95;;;17.10;90.60;;;;;;4992102;28;20033;-76
2021/06/26 01:34:03;;;;;;;17.48;9.07;;;17.20;90.60;;;;;;4991918;28;20027;-76
2021/06/26 01:36:29;;;;;;;18.35;8.90;;;17.20;90.60;;;;;;4957778;28;20046;-77
2021/06/26 01:38:59;;;;;;;13.73;8.27;;;17.10;90.60;;;;;;4972086;28;20438;-76
2021/06/26 01:41:31;;;;;;;15.57;9.05;;;17.20;90.70;;;;;;4971371;28;20038;-76
2021/06/26 01:43:56;;;;;;;15.88;9.02;;;17.10;90.70;;;;;;4989059;28;20105;-76
2021/06/26 01:46:22;;;;;;;17.40;9.27;;;17.10;90.70;;;;;;4988892;28;20069;-76
2021/06/26 01:48:48;;;;;;;14.52;8.45;;;17.10;90.70;;;;;;4984780;28;20023;-75
2021/06/26 01:51:13;;;;;;;22.33;9.90;;;17.10;90.70;;;;;;4966904;28;20081;-76
2021/06/26 01:53:39;;;;;;;15.75;8.98;;;17.00;90.70;;;;;;4989334;28;20022;-76
2021/06/26 01:56:05;;;;;;;17.67;9.23;;;17.00;90.70;;;;;;4988164;28;20077;-78
2021/06/26 01:58:31;;;;;;;17.70;8.63;;;17.00;90.80;;;;;;4986378;28;20026;-76
2021/06/26 02:00:57;;;;;;;15.48;8.45;;;17.00;90.80;;;;;;4986461;28;20029;-75
2021/06/26 02:03:22;;;;;;;17.25;8.75;;;17.00;90.80;;;;;;4987928;28;20205;-76
2021/06/26 02:05:48;;;;;;;15.13;8.15;;;17.00;90.80;;;;;;4988730;28;20050;-76
2021/06/26 02:08:13;;;;;;;18.05;9.43;;;17.00;90.80;;;;;;4986762;28;20038;-76
2021/06/26 02:10:39;;;;;;;17.23;9.02;;;17.00;90.80;;;;;;4972320;28;20023;-80
2021/06/26 02:13:05;;;;;;;17.13;8.93;;;17.00;90.80;;;;;;4984254;28;20376;-77
2021/06/26 02:15:31;;;;;;;16.75;8.18;;;17.00;90.80;;;;;;4986206;28;20109;-76
2021/06/26 02:17:57;;;;;;;17.33;8.55;;;17.00;90.80;;;;;;4985924;28;20029;-76
2021/06/26 02:20:22;;;;;;;16.77;8.77;;;17.00;90.80;;;;;;4987037;28;20097;-76
2021/06/26 02:22:48;;;;;;;16.60;9.15;;;17.00;90.80;;;;;;4983665;28;20023;-76
2021/06/26 02:25:15;;;;;;;17.42;9.38;;;16.90;90.80;;;;;;4982991;28;20503;-76
2021/06/26 02:27:41;;;;;;;17.80;8.75;;;16.90;90.80;;;;;;4985116;28;20387;-75
2021/06/26 02:30:09;;;;;;;18.75;9.40;;;16.90;90.80;;;;;;4967515;28;20025;-77
2021/06/26 02:32:35;;;;;;;18.27;9.38;;;16.90;90.80;;;;;;4990655;28;20076;-75
2021/06/26 02:35:01;;;;;;;17.70;9.55;;;16.90;90.80;;;;;;4971153;28;20378;-75
2021/06/26 02:37:27;;;;;;;19.15;8.98;;;16.90;90.70;;;;;;4973075;28;20050;-77
2021/06/26 02:39:53;;;;;;;19.23;10.48;;;16.90;90.70;;;;;;4989469;28;20026;-77
2021/06/26 02:42:18;;;;;;;19.38;9.45;;;16.90;90.80;;;;;;4969487;28;20030;-76
2021/06/26 02:44:44;;;;;;;16.67;9.50;;;16.90;90.80;;;;;;4984258;28;20113;-76
2021/06/26 02:47:10;;;;;;;18.83;9.60;;;16.90;90.80;;;;;;4970628;28;20049;-76
2021/06/26 02:49:36;;;;;;;18.55;9.75;;;16.90;90.80;;;;;;4966701;28;20054;-76
2021/06/26 02:52:02;;;;;;;16.95;8.63;;;16.90;90.80;;;;;;4990128;28;20031;-77
2021/06/26 02:54:28;;;;;;;16.95;9.43;;;16.90;90.80;;;;;;4970100;28;20033;-76
2021/06/26 02:56:53;;;;;;;18.17;9.27;;;16.90;90.80;;;;;;4973942;28;20041;-76
2021/06/26 02:59:19;;;;;;;17.80;9.45;;;16.80;90.80;;;;;;4987330;28;20026;-75
2021/06/26 03:01:44;;;;;;;18.40;10.18;;;16.80;90.80;;;;;;4991441;28;20417;-76
2021/06/26 03:04:10;;;;;;;21.00;10.02;;;16.80;90.80;;;;;;4990632;28;20076;-77
2021/06/26 03:06:36;;;;;;;18.02;10.15;;;16.80;90.80;;;;;;4990872;28;20050;-77
2021/06/26 03:09:02;;;;;;;17.77;9.80;;;16.80;90.80;;;;;;4984418;28;20018;-77
2021/06/26 03:11:27;;;;;;;20.88;10.30;;;16.80;90.80;;;;;;4992692;28;20101;-76
2021/06/26 03:13:53;;;;;;;17.15;8.82;;;16.90;90.70;;;;;;4991318;28;20037;-79
2021/06/26 03:16:19;;;;;;;22.75;10.27;;;16.90;90.70;;;;;;4994917;28;20099;-77
2021/06/26 03:18:44;;;;;;;18.95;9.63;;;16.90;90.60;;;;;;4992459;28;20033;-77
2021/06/26 03:21:11;;;;;;;20.15;9.73;;;17.00;90.60;;;;;;4975035;28;20030;-77
2021/06/26 03:23:38;;;;;;;17.05;9.32;;;17.00;90.60;;;;;;4991555;28;20098;-77
2021/06/26 03:26:05;;;;;;;19.52;9.68;;;17.10;90.60;;;;;;4989031;28;20122;-86
2021/06/26 03:28:35;;;;;;;20.23;11.63;;;17.10;90.50;;;;;;4984002;28;20037;-77
2021/06/26 03:31:01;;;;;;;23.23;10.63;;;17.10;90.50;;;;;;4989006;28;20494;-77
2021/06/26 03:33:27;;;;;;;20.35;11.55;;;17.10;90.50;;;;;;4986539;28;20452;-77
2021/06/26 03:35:53;;;;;;;19.20;10.65;;;17.20;90.50;;;;;;4973687;28;20220;-88
2021/06/26 03:38:19;;;;;;;19.50;11.45;;;17.20;90.50;;;;;;4986622;28;20106;-77
2021/06/26 03:40:44;;;;;;;22.75;10.50;;;17.20;90.40;;;;;;4972419;28;20018;-77
2021/06/26 03:43:10;;;;;;;18.88;9.77;;;17.30;90.40;;;;;;4989736;28;20027;-84
2021/06/26 03:45:36;;;;;;;24.30;10.32;;;17.30;90.40;;;;;;4991709;28;20019;-77
2021/06/26 03:48:01;;;;;;;25.10;11.15;;;17.30;90.40;;;;;;4974192;28;20097;-77
2021/06/26 03:50:27;;;;;;;19.73;9.63;;;17.30;90.40;;;;;;4988652;28;20023;-77
2021/06/26 03:52:53;;;;;;;23.48;10.75;;;17.30;90.40;;;;;;4986798;28;20502;-77
2021/06/26 03:55:18;;;;;;;20.98;10.38;;;17.30;90.30;;;;;;4989435;28;20027;-76
2021/06/26 03:57:44;;;;;;;20.20;10.23;;;17.40;90.30;;;;;;4989002;28;20033;-77
2021/06/26 04:00:11;;;;;;;21.67;10.68;;;17.40;90.30;;;;;;4989593;28;20030;-77
2021/06/26 04:02:37;;;;;;;18.95;9.30;;;17.40;90.40;;;;;;4990702;28;20096;-77
2021/06/26 04:05:04;;;;;;;19.63;9.88;;;17.40;90.40;;;;;;4987644;28;20018;-77
2021/06/26 04:07:29;;;;;;;16.80;9.23;;;17.40;90.40;;;;;;4985801;28;20493;-77
2021/06/26 04:09:55;;;;;;;19.25;9.95;;;17.40;90.40;;;;;;4983696;28;20023;-77
2021/06/26 04:12:20;;;;;;;21.63;10.27;;;17.50;90.40;;;;;;4992385;28;20027;-77
2021/06/26 04:14:46;;;;;;;19.70;9.95;;;17.50;90.40;;;;;;4975177;28;20148;-77
2021/06/26 04:17:12;;;;;;;19.30;10.02;;;17.50;90.40;;;;;;4984790;28;20109;-89
2021/06/26 04:19:37;;;;;;;18.17;9.93;;;17.50;90.40;;;;;;4990418;28;20379;-77
2021/06/26 04:22:04;;;;;;;20.73;10.35;;;17.50;90.40;;;;;;4990245;28;20029;-77
2021/06/26 04:24:30;;;;;;;19.35;9.88;;;17.60;90.40;;;;;;4985792;28;20027;-77
2021/06/26 04:26:56;;;;;;;20.45;10.45;;;17.60;90.40;;;;;;4994248;28;20039;-77
2021/06/26 04:29:22;;;;;;;21.33;10.35;;;17.60;90.40;;;;;;4983225;28;20029;-77
2021/06/26 04:31:47;;;;;;;20.33;10.18;;;17.60;90.40;;;;;;4989940;28;20110;-77
2021/06/26 04:34:13;;;;;;;18.83;9.98;;;17.60;90.40;;;;;;4993391;28;20478;-91
2021/06/26 04:36:40;;;;;;;18.70;9.35;;;17.60;90.40;;;;;;4982349;28;20113;-77
2021/06/26 04:39:07;;;;;;;17.40;9.68;;;17.60;90.40;;;;;;4987073;28;20015;-77
2021/06/26 04:41:34;;;;;;;16.95;9.35;;;17.60;90.40;;;;;;4986354;28;20019;-77
2021/06/26 04:44:00;;;;;;;20.75;9.75;;;17.60;90.40;;;;;;4993263;28;20049;-77
2021/06/26 04:46:25;;;;;;;19.40;9.43;;;17.60;90.40;;;;;;4993372;28;20069;-78
2021/06/26 04:48:51;;;;;;;17.90;9.48;;;17.70;90.40;;;;;;4990715;28;20033;-77
2021/06/26 04:51:18;;;;;;;18.58;9.32;;;17.70;90.40;;;;;;4993046;28;20077;-77
2021/06/26 04:53:43;;;;;;;18.55;8.73;;;17.70;90.40;;;;;;4983855;28;20074;-77
2021/06/26 04:56:09;;;;;;;19.30;9.40;;;17.80;90.30;;;;;;4971564;28;20026;-77
2021/06/26 04:58:35;;;;;;;20.90;10.73;;;17.80;90.30;;;;;;4971401;28;20037;-77
2021/06/26 05:01:00;;;;;;;20.08;9.65;;;17.80;90.30;;;;;;4991738;28;20506;-77
2021/06/26 05:03:26;;;;;;;17.35;9.55;;;17.90;90.30;;;;;;4984318;28;20134;-77
2021/06/26 05:05:52;;;;;;;16.90;9.20;;;17.90;90.20;;;;;;4985702;28;20438;-77
2021/06/26 05:08:19;;;;;;;18.77;8.40;;;17.90;90.20;;;;;;4986921;28;20045;-77
2021/06/26 05:10:45;;;;;;;15.07;8.13;;;17.90;90.20;;;;;;4970552;28;20034;-77
2021/06/26 05:13:10;;;;;;;17.33;8.88;;;17.90;90.20;;;;;;4989560;28;20029;-79
2021/06/26 05:15:36;;;;;;;21.08;9.48;;;17.90;90.20;;;;;;4989282;28;20033;-77
2021/06/26 05:18:02;;;;;;;17.33;9.25;;;17.90;90.20;;;;;;4983058;28;20126;-77
2021/06/26 05:20:28;;;;;;;18.73;9.13;;;18.00;90.30;;;;;;4989953;28;20471;-77
2021/06/26 05:22:54;;;;;;;19.48;9.30;;;18.00;90.30;;;;;;4971753;28;20023;-77
2021/06/26 05:25:20;;;;;;;18.83;8.90;;;18.00;90.30;;;;;;4969296;28;20029;-78
2021/06/26 05:27:46;;;;;;;19.52;9.48;;;18.00;90.20;;;;;;4984220;28;20043;-78
2021/06/26 05:30:12;;;;;;;17.15;9.80;;;18.10;90.20;;;;;;4984758;28;20126;-76
2021/06/26 05:32:38;;;;;;;15.82;8.82;;;18.20;90.10;;;;;;4987371;28;20035;-76
2021/06/26 05:35:05;;;;;;;18.38;9.77;;;18.20;90.10;;;;;;4990043;28;20492;-76
2021/06/26 05:37:30;;;;;;;19.25;9.20;;;18.20;90.10;;;;;;4959535;28;20038;-76
2021/06/26 05:39:56;;;;;;;14.95;8.50;;;18.30;90.10;;;;;;4970711;28;20474;-79
2021/06/26 05:42:22;;;;;;;17.48;9.63;;;18.30;90.10;;;;;;4989427;28;20023;-76
2021/06/26 05:44:48;;;;;;;22.50;10.15;;;18.30;90.00;;;;;;4989055;28;20030;-76
2021/06/26 05:47:14;;;;;;;18.60;8.95;;;18.40;90.00;;;;;;4986465;28;20093;-76
2021/06/26 05:49:39;;;;;;;17.10;9.32;;;18.40;89.90;;;;;;4971705;28;20391;-76
2021/06/26 05:52:05;;;;;;;19.13;9.93;;;18.40;89.70;;;;;;4984613;28;20093;-76
2021/06/26 05:54:31;;;;;;;20.63;10.93;;;18.50;89.80;;;;;;4966692;28;20120;-77
2021/06/26 05:56:57;;;;;;;17.73;9.18;;;18.50;89.80;;;;;;4988413;28;20063;-81
2021/06/26 05:59:23;;;;;;;19.15;9.20;;;18.50;89.70;;;;;;4988308;28;20022;-77
2021/06/26 06:01:49;;;;;;;20.90;10.02;;;18.50;89.60;;;;;;4988384;28;20026;-76
2021/06/26 06:04:14;;;;;;;18.73;9.80;;;18.50;89.60;;;;;;4968294;28;20118;-76
2021/06/26 06:06:40;;;;;;;17.70;9.68;;;18.50;89.60;;;;;;4978579;28;20081;-76
2021/06/26 06:09:07;;;;;;;17.98;10.20;;;18.50;89.80;;;;;;4973085;28;20019;-77
2021/06/26 06:11:33;;;;;;;20.48;9.88;;;18.50;89.80;;;;;;4964413;28;20040;-76
2021/06/26 06:13:59;;;;;;;18.00;8.95;;;18.50;89.90;;;;;;4988014;28;20026;-77
2021/06/26 06:16:25;;;;;;;20.50;10.48;;;18.50;89.80;;;;;;4990848;28;20374;-76
2021/06/26 06:18:51;;;;;;;19.58;10.35;;;18.50;89.80;;;;;;4988094;28;20026;-76
2021/06/26 06:21:18;;;;;;;21.02;11.00;;;18.50;89.80;;;;;;4966015;28;20037;-76
2021/06/26 06:23:44;;;;;;;21.30;11.63;;;18.50;89.90;;;;;;4987492;28;20030;-76
2021/06/26 06:26:09;;;;;;;18.00;9.88;;;18.50;89.80;;;;;;4991091;28;20459;-76
2021/06/26 06:28:35;;;;;;;19.85;10.15;;;18.50;89.80;;;;;;4988522;28;20062;-76
2021/06/26 06:31:01;;;;;;;17.23;9.98;;;18.50;89.80;;;;;;4970595;28;20027;-76
2021/06/26 06:33:27;;;;;;;21.75;10.52;;;18.50;89.80;;;;;;4988859;28;20031;-78
2021/06/26 06:35:53;;;;;;;22.63;11.13;;;18.50;89.80;;;;;;4987098;28;20027;-76
2021/06/26 06:38:19;;;;;;;24.40;10.40;;;18.50;89.90;;;;;;4974609;28;20046;-76
2021/06/26 06:40:44;;;;;;;23.33;10.75;;;18.50;89.80;;;;;;4986849;28;20034;-76
2021/06/26 06:43:10;;;;;;;23.08;9.85;;;18.50;89.90;;;;;;4966310;28;20022;-86
2021/06/26 06:45:36;;;;;;;19.88;9.38;;;18.40;90.00;;;;;;4989709;28;20022;-75
2021/06/26 06:48:01;;;;;;;19.45;10.65;;;18.40;90.00;;;;;;4985716;28;20046;-76
2021/06/26 06:50:27;;;;;;;19.77;10.73;;;18.40;90.00;;;;;;4987159;28;20026;-76
2021/06/26 06:52:53;;;;;;;17.58;9.35;;;18.40;90.00;;;;;;4970696;28;20431;-76
2021/06/26 06:55:18;;;;;;;20.23;10.15;;;18.40;90.00;;;;;;4985370;28;20101;-76
2021/06/26 06:57:44;;;;;;;19.60;9.57;;;18.40;90.00;;;;;;4981698;28;20158;-76
2021/06/26 07:00:11;;;;;;;16.98;9.43;;;18.40;90.00;;;;;;4989978;28;20081;-76
2021/06/26 07:02:38;;;;;;;15.93;8.80;;;18.50;90.00;;;;;;4986180;28;20030;-75
2021/06/26 07:05:05;;;;;;;14.35;8.20;;;18.50;90.00;;;;;;4967805;28;20054;-76
2021/06/26 07:07:30;;;;;;;16.55;9.02;;;18.50;90.00;;;;;;4982560;28;20165;-80
2021/06/26 07:09:56;;;;;;;17.50;9.20;;;18.50;90.00;;;;;;4981613;28;20117;-76
2021/06/26 07:12:22;;;;;;;16.92;9.10;;;18.60;90.00;;;;;;4981617;28;20101;-75
2021/06/26 07:14:48;;;;;;;17.02;8.70;;;18.60;89.80;;;;;;4985138;28;20382;-76
2021/06/26 07:17:14;;;;;;;19.30;9.32;;;18.60;89.80;;;;;;4981795;28;20075;-76
2021/06/26 07:19:40;;;;;;;17.48;8.95;;;18.70;89.80;;;;;;4985851;28;20026;-76
2021/06/26 07:22:05;;;;;;;18.17;8.95;;;18.70;89.70;;;;;;4970650;28;20027;-76
2021/06/26 07:24:31;;;;;;;16.80;8.95;;;18.70;89.60;;;;;;4986296;28;20467;-76
2021/06/26 07:26:57;;;;;;;18.10;9.05;;;18.80;89.60;;;;;;4970956;28;20382;-77
2021/06/26 07:29:23;;;;;;;13.65;8.45;;;18.80;89.50;;;;;;4987061;28;20030;-77
2021/06/26 07:31:49;;;;;;;16.27;9.13;;;18.80;89.40;;;;;;4979934;28;20034;-76
2021/06/26 07:34:15;;;;;;;14.10;7.65;;;18.90;90.00;;;;;;4979333;28;20134;-77
2021/06/26 07:36:41;;;;;;;15.73;8.18;;;18.90;89.30;;;;;;4969930;28;20482;-76
2021/06/26 07:39:07;;;;;;;16.10;8.35;;;18.90;89.20;;;;;;4969810;28;20026;-76
2021/06/26 07:41:32;;;;;;;19.67;8.88;;;19.00;89.10;;;;;;4965227;28;20062;-76
2021/06/26 07:43:58;;;;;;;17.08;8.32;;;19.00;89.00;;;;;;4988214;28;20382;-75
2021/06/26 07:46:24;;;;;;;14.40;8.10;;;19.10;88.90;;;;;;4994276;28;20110;-76
2021/06/26 07:48:50;;;;;;;17.17;7.90;;;19.10;88.80;;;;;;4992017;28;20421;-76
2021/06/26 07:51:16;;;;;;;16.23;7.82;;;19.10;88.70;;;;;;4992609;28;20035;-76
2021/06/26 07:53:42;;;;;;;14.82;8.40;;;19.20;88.60;;;;;;4992664;28;20026;-75
2021/06/26 07:56:07;;;;;;;16.90;8.45;;;19.20;88.60;;;;;;4986319;28;20031;-76
2021/06/26 07:58:33;;;;;;;14.43;7.75;;;19.20;88.60;;;;;;4988628;28;20035;-76
2021/06/26 08:00:59;;;;;;;16.90;8.38;;;19.30;88.30;;;;;;4963878;28;20023;-75
2021/06/26 08:03:25;;;;;;;14.68;7.93;;;19.30;88.10;;;;;;4990415;28;20109;-75
2021/06/26 08:05:51;;;;;;;15.82;8.43;;;19.40;87.90;;;;;;4972247;28;20569;-75
2021/06/26 08:08:18;;;;;;;16.55;9.05;;;19.40;87.90;;;;;;4974502;28;20039;-75
2021/06/26 08:10:44;;;;;;;15.73;9.15;;;19.40;87.70;;;;;;4993233;28;20467;-75
2021/06/26 08:13:13;;;;;;;15.80;9.10;;;19.50;87.70;;;;;;4994170;28;20495;-75
2021/06/26 08:15:39;;;;;;;16.75;8.60;;;19.60;87.50;;;;;;4973155;28;20029;-75
2021/06/26 08:18:05;;;;;;;15.20;8.18;;;19.60;87.30;;;;;;4983515;28;20031;-85
2021/06/26 08:20:31;;;;;;;16.10;7.93;;;19.60;87.10;;;;;;4973700;28;20026;-75
2021/06/26 08:22:57;;;;;;;16.35;8.48;;;19.70;87.20;;;;;;4993183;28;20489;-75
2021/06/26 08:25:24;;;;;;;16.65;7.90;;;19.70;87.10;;;;;;4988365;28;20026;-75
2021/06/26 08:27:49;;;;;;;15.40;8.00;;;19.80;86.90;;;;;;4987152;28;20050;-75
2021/06/26 08:30:16;;;;;;;14.30;7.88;;;19.90;86.60;;;;;;4987880;28;20430;-75
2021/06/26 08:32:43;;;;;;;16.52;8.35;;;19.90;86.40;;;;;;4993770;28;20026;-75
2021/06/26 08:35:09;;;;;;;16.70;8.27;;;19.90;86.30;;;;;;4994338;28;20045;-75
2021/06/26 08:37:35;;;;;;;14.77;8.15;;;19.90;86.20;;;;;;4974498;28;20050;-75
2021/06/26 08:40:02;;;;;;;15.00;8.38;;;20.00;86.10;;;;;;4989612;28;20022;-76
2021/06/26 08:42:27;;;;;;;15.60;7.90;;;20.00;86.00;;;;;;4986170;28;20050;-75
2021/06/26 08:44:59;;;;;;;13.98;7.88;;;20.00;85.90;;;;;;4985141;28;20495;-76
2021/06/26 08:47:25;;;;;;;16.00;7.85;;;20.00;85.90;;;;;;4985247;28;20136;-75
2021/06/26 08:49:51;;;;;;;17.30;8.15;;;20.10;85.70;;;;;;4993011;28;20138;-76
2021/06/26 08:52:17;;;;;;;14.65;7.25;;;20.10;85.40;;;;;;4972463;28;20117;-75
2021/06/26 08:54:43;;;;;;;14.40;7.53;;;20.20;85.00;;;;;;4986838;28;20351;-75
2021/06/26 08:57:09;;;;;;;14.70;7.97;;;20.30;84.90;;;;;;4989142;28;20481;-75
2021/06/26 08:59:34;;;;;;;14.68;7.35;;;20.30;84.80;;;;;;4988081;28;20031;-75
2021/06/26 09:02:01;;;;;;;18.25;8.20;;;20.30;84.70;;;;;;4989801;28;20030;-81
2021/06/26 09:04:27;;;;;;;12.45;7.38;;;20.40;84.50;;;;;;4971665;28;20076;-76
2021/06/26 09:06:55;;;;;;;11.80;7.30;;;20.40;84.20;;;;;;4989067;28;20054;-75
2021/06/26 09:09:35;;;;;;;17.45;7.97;;;20.50;83.80;;;;;;4983507;28;20018;-76
2021/06/26 09:12:12;;;;;;;15.38;8.25;;;20.60;83.30;;;;;;4989958;28;20371;-78
2021/06/26 09:14:39;;;;;;;13.57;6.90;;;20.70;83.80;;;;;;4985546;28;20022;-76
2021/06/26 09:17:07;;;;;;;13.88;7.90;;;20.70;83.10;;;;;;4987851;28;20038;-81
2021/06/26 09:19:34;;;;;;;14.25;7.72;;;20.70;83.10;;;;;;4986879;28;20053;-76
2021/06/26 09:22:05;;;;;;;14.05;7.13;;;20.70;82.90;;;;;;4971357;28;20375;-86
2021/06/26 09:24:37;;;;;;;;;;;20.80;82.60;;;;;;4971739;28;20030;-76
2021/06/26 09:27:03;;;;;;;12.55;6.82;;;20.90;82.40;;;;;;4986132;28;19953;-76
2021/06/26 09:29:29;;;;;;;15.50;7.30;;;21.00;82.00;;;;;;4967039;28;20041;-75
2021/06/26 09:32:00;;;;;;;13.02;7.57;;;21.10;81.80;;;;;;4971026;28;20030;-75
2021/06/26 09:34:43;;;;;;;12.05;6.82;;;21.10;81.50;;;;;;4991476;28;20027;-77
2021/06/26 09:37:17;;;;;;;12.77;6.68;;;21.20;81.30;;;;;;4990472;28;20057;-76
2021/06/26 09:39:44;;;;;;;9.43;5.45;;;21.20;81.20;;;;;;4990780;28;20062;-76
2021/06/26 09:42:19;;;;;;;13.02;7.43;;;21.30;81.00;;;;;;4974488;28;20049;-76
2021/06/26 09:44:56;;;;;;;13.02;6.90;;;21.40;80.60;;;;;;4973880;28;20077;-76
2021/06/26 09:47:36;;;;;;;10.63;6.20;;;21.50;80.10;;;;;;4984712;28;20030;-75
2021/06/26 09:50:17;;;;;;;11.57;6.40;;;21.60;79.80;;;;;;4984937;28;20019;-76
2021/06/26 09:52:53;;;;;;;11.63;6.75;;;21.60;79.60;;;;;;4989628;28;20030;-76
2021/06/26 09:55:23;;;;;;;12.70;6.75;;;21.70;79.40;;;;;;4989102;28;20101;-78
2021/06/26 09:57:51;;;;;;;11.95;6.93;;;21.70;79.10;;;;;;4969082;28;20030;-78
2021/06/26 10:00:18;;;;;;;10.00;6.50;;;21.70;79.60;;;;;;4973107;28;20030;-79
2021/06/26 10:02:45;;;;;;;11.60;6.40;;;21.80;78.90;;;;;;4989733;28;20042;-79
2021/06/26 10:05:13;;;;;;;12.38;7.22;;;21.90;78.40;;;;;;4962716;28;20023;-78
2021/06/26 10:07:40;;;;;;;12.95;7.38;;;22.00;78.40;;;;;;4962887;28;20047;-77
2021/06/26 10:10:11;;;;;;;12.57;7.65;;;21.90;78.30;;;;;;4968498;28;20046;-78
2021/06/26 10:12:37;;;;;;;14.30;7.20;;;22.00;78.30;;;;;;4985807;28;20026;-78
2021/06/26 10:15:05;;;;;;;12.23;7.30;;;22.00;78.20;;;;;;4984279;28;20316;-77
2021/06/26 10:17:33;;;;;;;16.65;7.70;;;22.00;78.50;;;;;;4990310;28;20022;-77
2021/06/26 10:19:59;;;;;;;9.95;5.63;;;22.20;77.40;;;;;;4986441;28;20339;-78
2021/06/26 10:22:25;;;;;;;12.45;7.20;;;22.40;76.90;;;;;;4986872;28;20037;-78
2021/06/26 10:24:51;;;;;;;12.05;6.63;;;22.40;76.50;;;;;;4970395;28;20526;-81
2021/06/26 10:27:23;;;;;;;10.88;6.70;;;22.40;76.30;;;;;;4981518;28;21215;-78
2021/06/26 10:29:50;;;;;;;10.93;6.60;;;22.40;76.20;;;;;;4969790;28;20490;-77
2021/06/26 10:32:18;;;;;;;10.25;6.30;;;22.40;76.00;;;;;;4971001;28;20026;-78
2021/06/26 10:34:48;;;;;;;10.82;5.57;;;22.60;75.80;;;;;;4989643;28;20129;-78
2021/06/26 10:37:24;;;;;;;14.55;6.97;;;22.70;75.40;;;;;;4987355;28;20503;-78
2021/06/26 10:40:06;;;;;;;9.63;5.55;;;22.70;75.10;;;;;;4979043;28;20051;-76
2021/06/26 10:42:34;;;;;;;10.50;6.00;;;22.70;74.90;;;;;;4971709;28;20065;-77
2021/06/26 10:45:00;;;;;;;12.82;6.28;;;22.70;74.90;;;;;;4981177;28;20034;-78
2021/06/26 10:47:37;;;;;;;10.43;6.35;;;22.80;74.60;;;;;;4965858;28;20045;-77
2021/06/26 10:50:18;;;;;;;12.38;7.20;;;22.80;74.00;;;;;;4984187;28;20073;-78
2021/06/26 10:52:57;;;;;;;11.30;6.80;;;22.90;73.90;;;;;;4987144;28;20493;-78
2021/06/26 10:55:35;;;;;;;13.02;7.07;;;23.00;73.60;;;;;;4987792;28;20041;-77
2021/06/26 10:58:03;;;;;;;14.85;6.90;;;23.10;73.00;;;;;;4987414;28;20077;-77
2021/06/26 11:00:33;;;;;;;12.02;7.25;;;23.20;72.60;;;;;;4991532;28;20026;-78
2021/06/26 11:02:59;;;;;;;11.17;6.20;;;23.40;72.10;;;;;;4962260;28;20363;-80
2021/06/26 11:05:33;;;;;;;12.18;6.90;;;23.50;71.90;;;;;;4990455;28;20026;-77
2021/06/26 11:07:59;;;;;;;9.57;5.97;;;23.60;71.50;;;;;;4983021;28;20051;-78
2021/06/26 11:10:25;;;;;;;10.90;6.40;;;23.70;71.20;;;;;;4962939;28;20068;-77
2021/06/26 11:12:51;;;;;;;10.02;5.05;;;23.90;70.70;;;;;;4986500;28;20102;-79
2021/06/26 11:15:28;;;;;;;9.15;5.55;;;24.10;70.20;;;;;;4983459;28;20094;-77
2021/06/26 11:17:54;;;;;;;11.02;6.57;;;24.40;69.70;;;;;;4987458;28;20034;-78
2021/06/26 11:20:21;;;;;;;10.70;6.88;;;24.60;68.90;;;;;;4993370;28;20029;-77
2021/06/26 11:23:01;;;;;;;10.45;6.78;;;24.80;68.20;;;;;;4992176;28;20030;-77
2021/06/26 11:25:28;;;;;;;10.85;6.82;;;25.00;67.70;;;;;;4976464;28;20497;-77
2021/06/26 11:28:05;;;;;;;10.52;6.40;;;24.90;67.70;;;;;;4972996;28;20114;-77
2021/06/26 11:30:31;;;;;;;15.43;6.95;;;24.90;67.30;;;;;;4974524;28;20361;-77
2021/06/26 11:32:59;;;;;;;10.85;7.22;;;24.90;67.50;;;;;;4988968;28;20460;-78
2021/06/26 11:35:40;;;;;;;10.82;7.07;;;24.80;67.10;;;;;;4990880;28;20034;-77
2021/06/26 11:38:15;;;;;;;11.15;6.43;;;25.00;66.90;;;;;;4979166;28;20054;-79
2021/06/26 11:40:40;;;;;;;11.20;7.80;;;25.10;66.70;;;;;;4988476;28;20022;-83
2021/06/26 11:43:06;;;;;;;10.75;6.43;;;25.20;66.50;;;;;;4991885;28;20153;-77
2021/06/26 11:45:33;;;;;;;11.20;6.63;;;25.30;66.20;;;;;;4987000;28;20084;-77
2021/06/26 11:48:19;;;;;;;9.73;6.28;;;25.40;65.70;;;;;;4987956;28;20030;-75
2021/06/26 11:50:49;;;;;;;10.43;6.30;;;25.50;65.30;;;;;;4989767;28;20174;-77
2021/06/26 11:53:17;;;;;;;10.95;6.90;;;25.60;65.40;;;;;;4979122;28;20030;-77
2021/06/26 11:56:21;;;;;;;11.25;6.47;;;25.80;65.10;;;;;;4989819;28;20027;-76
2021/06/26 11:58:51;;;;;;;10.93;7.00;;;25.90;64.70;;;;;;4981658;28;20416;-75
2021/06/26 12:01:26;;;;;;;10.90;6.43;;;26.00;64.20;;;;;;4973010;28;20033;-76
2021/06/26 12:03:52;;;;;;;9.88;5.88;;;26.10;63.90;;;;;;4973287;28;20018;-80
2021/06/26 12:06:19;;;;;;;9.48;6.30;;;26.20;63.90;;;;;;4991211;28;20522;-85
2021/06/26 12:08:53;;;;;;;11.45;6.70;;;26.10;63.80;;;;;;4971222;28;20068;-77
2021/06/26 12:11:19;;;;;;;12.02;6.72;;;26.10;64.30;;;;;;4968645;28;20019;-78
2021/06/26 12:13:47;;;;;;;17.38;6.53;;;26.10;63.50;;;;;;4986354;28;20041;-77
2021/06/26 12:16:21;;;;;;;8.63;5.32;;;26.10;63.10;;;;;;4992851;28;20096;-80
2021/06/26 12:18:55;;;;;;;9.68;6.07;;;26.00;62.90;;;;;;4981916;28;20383;-76
2021/06/26 12:21:27;;;;;;;9.65;6.10;;;26.00;62.80;;;;;;4973007;28;20093;-77
2021/06/26 12:23:54;;;;;;;13.77;6.82;;;25.90;63.00;;;;;;4982990;28;20023;-85
2021/06/26 12:26:22;;;;;;;11.73;7.07;;;26.00;63.00;;;;;;4992477;28;20027;-76
2021/06/26 12:28:49;;;;;;;9.80;5.97;;;26.10;62.70;;;;;;4984399;28;20391;-76
2021/06/26 12:31:15;;;;;;;10.63;6.32;;;26.10;62.60;;;;;;4992440;28;20491;-76
2021/06/26 12:33:41;;;;;;;10.63;6.60;;;26.10;62.50;;;;;;4988309;28;20077;-75
2021/06/26 12:36:25;;;;;;;10.68;6.43;;;26.10;62.40;;;;;;4986879;28;20035;-75